createdAt,value
2018-12-11T00:00:19.048Z,1.40
2018-12-11T00:02:45.749Z,1.40
2018-12-11T00:05:12.465Z,1.40
2018-12-11T00:07:39.175Z,1.40
2018-12-11T00:10:05.891Z,1.40
2018-12-11T00:12:32.590Z,1.40
2018-12-11T00:14:59.307Z,1.40
2018-12-11T00:17:26.115Z,1.40
2018-12-11T00:19:52.827Z,1.30
2018-12-11T00:22:19.542Z,1.30
2018-12-11T00:24:46.259Z,1.30
2018-12-11T00:27:12.954Z,1.20
2018-12-11T00:29:39.658Z,1.20
2018-12-11T00:32:06.362Z,1.10
2018-12-11T00:34:33.069Z,1.10
2018-12-11T00:36:59.769Z,1.10
2018-12-11T00:39:26.480Z,1.10
2018-12-11T00:41:53.174Z,1.10
2018-12-11T00:44:19.882Z,1.10
2018-12-11T00:46:46.578Z,1.10
2018-12-11T00:49:13.330Z,1.10
2018-12-11T00:51:40.036Z,1.10
2018-12-11T00:54:06.743Z,1.20
2018-12-11T00:56:33.452Z,1.20
2018-12-11T00:59:00.147Z,1.20
2018-12-11T01:01:26.869Z,1.20
2018-12-11T01:03:53.570Z,1.20
2018-12-11T01:06:22.310Z,1.30
2018-12-11T01:08:49.014Z,1.30
2018-12-11T01:11:15.730Z,1.30
2018-12-11T01:13:42.435Z,1.30
2018-12-11T01:16:09.151Z,1.30
2018-12-11T01:18:35.859Z,1.30
2018-12-11T01:21:02.568Z,1.30
2018-12-11T01:23:29.276Z,1.40
2018-12-11T01:25:55.987Z,1.40
2018-12-11T01:28:22.686Z,1.50
2018-12-11T01:30:49.403Z,1.50
2018-12-11T01:33:16.102Z,1.50
2018-12-11T01:35:42.812Z,1.60
2018-12-11T01:38:09.518Z,1.60
2018-12-11T01:40:36.241Z,1.60
2018-12-11T01:43:02.951Z,1.60
2018-12-11T01:45:29.690Z,1.70
2018-12-11T01:47:56.386Z,1.70
2018-12-11T01:50:23.100Z,1.70
2018-12-11T01:52:49.802Z,1.70
2018-12-11T01:55:16.514Z,1.70
2018-12-11T01:57:43.221Z,1.80
2018-12-11T02:00:10.046Z,1.80
2018-12-11T02:02:36.742Z,1.80
2018-12-11T02:05:03.562Z,1.80
2018-12-11T02:07:31.225Z,1.80
2018-12-11T02:09:57.979Z,1.80
2018-12-11T02:12:24.690Z,1.80
2018-12-11T02:14:51.386Z,1.80
2018-12-11T02:17:18.094Z,1.80
2018-12-11T02:19:44.796Z,1.90
2018-12-11T02:22:11.505Z,1.90
2018-12-11T02:24:38.200Z,1.90
2018-12-11T02:27:04.918Z,1.90
2018-12-11T02:29:31.619Z,1.90
2018-12-11T02:31:58.332Z,1.90
2018-12-11T02:34:25.027Z,1.90
2018-12-11T02:36:51.742Z,1.90
2018-12-11T02:39:18.447Z,1.80
2018-12-11T02:41:45.158Z,1.80
2018-12-11T02:44:11.859Z,1.90
2018-12-11T02:46:38.571Z,1.90
2018-12-11T02:49:06.170Z,1.90
2018-12-11T02:51:33.181Z,1.90
2018-12-11T02:53:59.887Z,1.90
2018-12-11T02:56:26.599Z,2.00
2018-12-11T02:58:53.298Z,2.10
2018-12-11T03:01:20.020Z,2.30
2018-12-11T03:03:46.718Z,2.50
2018-12-11T03:06:13.444Z,2.80
2018-12-11T03:08:40.134Z,3.00
2018-12-11T03:11:06.842Z,3.20
2018-12-11T03:13:33.535Z,3.10
2018-12-11T03:16:00.247Z,3.20
2018-12-11T03:18:26.953Z,3.20
2018-12-11T03:20:53.665Z,3.30
2018-12-11T03:23:20.361Z,3.30
2018-12-11T03:25:47.098Z,3.20
2018-12-11T03:28:13.794Z,3.20
2018-12-11T03:30:40.504Z,3.10
2018-12-11T03:33:07.535Z,3.20
2018-12-11T03:35:34.238Z,3.20
2018-12-11T03:38:00.952Z,3.20
2018-12-11T03:40:27.651Z,3.20
2018-12-11T03:42:54.358Z,3.20
2018-12-11T03:45:21.054Z,3.20
2018-12-11T03:47:47.767Z,3.20
2018-12-11T03:50:15.678Z,3.20
2018-12-11T03:52:42.686Z,3.20
2018-12-11T03:55:09.386Z,3.20
2018-12-11T03:57:36.108Z,3.20
2018-12-11T04:00:02.838Z,3.30
2018-12-11T04:02:29.546Z,3.30
2018-12-11T04:04:56.248Z,3.10
2018-12-11T04:07:22.958Z,3.10
2018-12-11T04:09:49.663Z,3.10
2018-12-11T04:12:16.487Z,3.10
2018-12-11T04:14:43.298Z,3.00
2018-12-11T04:17:10.067Z,2.90
2018-12-11T04:19:37.783Z,2.90
2018-12-11T04:22:11.457Z,2.90
2018-12-11T04:24:38.176Z,2.90
2018-12-11T04:27:04.981Z,3.00
2018-12-11T04:29:31.673Z,3.00
2018-12-11T04:31:58.382Z,2.90
2018-12-11T04:34:25.082Z,2.90
2018-12-11T04:36:51.792Z,3.00
2018-12-11T04:39:18.500Z,3.00
2018-12-11T04:41:45.208Z,2.90
2018-12-11T04:44:11.906Z,2.80
2018-12-11T04:46:38.615Z,2.80
2018-12-11T04:49:05.431Z,2.90
2018-12-11T04:51:32.122Z,2.90
2018-12-11T04:53:58.821Z,3.00
2018-12-11T04:56:25.521Z,3.00
2018-12-11T04:58:52.234Z,3.00
2018-12-11T05:01:18.943Z,2.90
2018-12-11T05:03:45.678Z,2.80
2018-12-11T05:06:12.474Z,2.70
2018-12-11T05:08:39.191Z,2.70
2018-12-11T05:11:06.076Z,2.70
2018-12-11T05:13:32.828Z,2.70
2018-12-11T05:15:59.534Z,2.90
2018-12-11T05:18:26.246Z,2.90
2018-12-11T05:20:52.951Z,2.80
2018-12-11T05:23:19.662Z,2.70
2018-12-11T05:25:46.363Z,2.70
2018-12-11T05:28:13.069Z,2.60
2018-12-11T05:30:39.770Z,2.60
2018-12-11T05:33:06.482Z,2.70
2018-12-11T05:35:33.182Z,2.70
2018-12-11T05:37:59.887Z,2.80
2018-12-11T05:40:26.591Z,2.80
2018-12-11T05:42:53.307Z,2.80
2018-12-11T05:45:20.018Z,2.80
2018-12-11T05:47:46.723Z,2.80
2018-12-11T05:50:13.438Z,2.90
2018-12-11T05:52:40.134Z,2.90
2018-12-11T05:55:06.958Z,3.10
2018-12-11T05:57:33.678Z,3.10
2018-12-11T06:00:00.394Z,3.10
2018-12-11T06:02:27.099Z,3.10
2018-12-11T06:04:53.810Z,3.00
2018-12-11T06:07:20.518Z,3.00
2018-12-11T06:09:47.342Z,3.00
2018-12-11T06:12:14.043Z,3.00
2018-12-11T06:14:40.752Z,2.90
2018-12-11T06:17:07.458Z,3.00
2018-12-11T06:19:34.167Z,3.20
2018-12-11T06:22:00.866Z,3.20
2018-12-11T06:24:27.579Z,3.20
2018-12-11T06:26:54.279Z,3.20
2018-12-11T06:29:21.486Z,3.20
2018-12-11T06:31:48.183Z,3.30
2018-12-11T06:34:14.914Z,3.30
2018-12-11T06:36:41.627Z,3.30
2018-12-11T06:39:08.327Z,3.30
2018-12-11T06:41:35.538Z,3.40
2018-12-11T06:44:02.238Z,3.40
2018-12-11T06:46:29.151Z,3.40
2018-12-11T06:48:55.846Z,3.40
2018-12-11T06:51:22.549Z,3.30
2018-12-11T06:53:49.247Z,3.30
2018-12-11T06:56:15.960Z,3.30
2018-12-11T06:58:42.662Z,3.30
2018-12-11T07:01:09.366Z,3.30
2018-12-11T07:03:36.062Z,3.20
2018-12-11T07:06:02.800Z,3.20
2018-12-11T07:08:29.519Z,3.20
2018-12-11T07:10:56.230Z,3.20
2018-12-11T07:13:22.935Z,3.20
2018-12-11T07:15:49.646Z,3.20
2018-12-11T07:18:16.346Z,3.20
2018-12-11T07:20:43.050Z,3.20
2018-12-11T07:23:09.743Z,3.20
2018-12-11T07:25:36.462Z,3.20
2018-12-11T07:28:03.171Z,3.20
2018-12-11T07:30:29.903Z,3.20
2018-12-11T07:32:56.701Z,3.30
2018-12-11T07:35:23.403Z,3.30
2018-12-11T07:37:50.105Z,3.30
2018-12-11T07:40:16.811Z,3.30
2018-12-11T07:42:43.517Z,3.30
2018-12-11T07:45:10.219Z,3.30
2018-12-11T07:47:36.934Z,3.30
2018-12-11T07:50:03.738Z,3.40
2018-12-11T07:52:30.450Z,3.40
2018-12-11T07:54:57.159Z,3.50
2018-12-11T07:57:23.865Z,3.50
2018-12-11T07:59:50.571Z,3.50
2018-12-11T08:02:17.291Z,3.50
2018-12-11T08:04:43.995Z,3.40
2018-12-11T08:07:10.712Z,3.40
2018-12-11T08:09:37.406Z,3.40
2018-12-11T08:12:08.293Z,3.30
2018-12-11T08:14:32.838Z,3.30
2018-12-11T08:16:59.543Z,3.30
2018-12-11T08:19:26.243Z,3.30
2018-12-11T08:21:52.994Z,3.30
2018-12-11T08:24:21.620Z,3.30
2018-12-11T08:26:48.319Z,3.30
2018-12-11T08:29:15.030Z,3.30
2018-12-11T08:31:41.731Z,3.30
2018-12-11T08:34:08.434Z,3.30
2018-12-11T08:36:35.141Z,3.40
2018-12-11T08:39:01.854Z,3.40
2018-12-11T08:41:28.567Z,3.40
2018-12-11T08:43:55.280Z,3.50
2018-12-11T08:46:22.244Z,3.50
2018-12-11T08:48:49.115Z,3.60
2018-12-11T08:51:15.819Z,3.70
2018-12-11T08:53:42.527Z,3.80
2018-12-11T08:56:09.303Z,3.80
2018-12-11T08:58:36.014Z,3.80
2018-12-11T09:01:02.725Z,3.80
2018-12-11T09:03:29.439Z,3.80
2018-12-11T09:05:56.147Z,3.80
2018-12-11T09:08:22.866Z,3.80
2018-12-11T09:10:49.566Z,3.90
2018-12-11T09:13:16.283Z,3.90
2018-12-11T09:15:42.983Z,3.90
2018-12-11T09:18:09.690Z,3.90
2018-12-11T09:20:37.223Z,3.90
2018-12-11T09:23:03.922Z,3.90
2018-12-11T09:25:30.634Z,3.90
2018-12-11T09:27:57.339Z,3.90
2018-12-11T09:30:24.063Z,3.90
2018-12-11T09:32:50.762Z,3.90
2018-12-11T09:35:17.499Z,3.90
2018-12-11T09:37:44.203Z,4.00
2018-12-11T09:40:10.915Z,4.00
2018-12-11T09:42:37.626Z,4.00
2018-12-11T09:45:04.926Z,4.00
2018-12-11T09:47:31.630Z,4.00
2018-12-11T09:49:58.352Z,4.00
2018-12-11T09:52:25.059Z,4.10
2018-12-11T09:54:52.079Z,4.10
2018-12-11T09:57:18.840Z,4.10
2018-12-11T09:59:45.559Z,4.10
2018-12-11T10:02:12.251Z,4.10
2018-12-11T10:04:38.966Z,4.10
2018-12-11T10:07:05.678Z,4.10
2018-12-11T10:09:32.395Z,4.10
2018-12-11T10:11:59.091Z,4.20
2018-12-11T10:14:25.796Z,4.10
2018-12-11T10:16:52.498Z,4.10
2018-12-11T10:19:21.107Z,4.10
2018-12-11T10:21:47.815Z,4.10
2018-12-11T10:24:14.510Z,4.10
2018-12-11T10:26:41.223Z,4.00
2018-12-11T10:29:07.918Z,4.00
2018-12-11T10:31:34.621Z,4.00
2018-12-11T10:34:01.317Z,4.10
2018-12-11T10:36:28.034Z,4.10
2018-12-11T10:38:54.734Z,4.10
2018-12-11T10:41:21.445Z,4.00
2018-12-11T10:43:48.155Z,4.00
2018-12-11T10:46:14.866Z,4.00
2018-12-11T10:48:41.562Z,4.00
2018-12-11T10:51:15.079Z,4.00
2018-12-11T10:53:41.789Z,4.10
2018-12-11T10:56:08.494Z,4.10
2018-12-11T10:58:35.187Z,4.10
2018-12-11T11:01:07.562Z,4.10
2018-12-11T11:03:34.267Z,4.10
2018-12-11T11:06:00.974Z,4.10
2018-12-11T11:08:27.683Z,4.10
2018-12-11T11:10:54.398Z,4.10
2018-12-11T11:13:21.113Z,4.10
2018-12-11T11:15:47.850Z,4.10
2018-12-11T11:18:14.558Z,4.10
2018-12-11T11:20:41.261Z,4.20
2018-12-11T11:23:07.965Z,4.20
2018-12-11T11:25:34.669Z,4.20
2018-12-11T11:28:01.378Z,4.20
2018-12-11T11:30:28.083Z,4.20
2018-12-11T11:32:54.802Z,4.20
2018-12-11T11:35:21.502Z,4.20
2018-12-11T11:37:48.215Z,4.20
2018-12-11T11:40:14.934Z,4.20
2018-12-11T11:42:41.754Z,4.20
2018-12-11T11:45:09.385Z,4.20
2018-12-11T11:47:36.099Z,4.20
2018-12-11T11:50:03.314Z,4.10
2018-12-11T11:52:30.034Z,4.10
2018-12-11T11:54:57.138Z,4.10
2018-12-11T11:57:29.539Z,4.20
2018-12-11T11:59:52.568Z,4.10
2018-12-11T12:02:19.391Z,4.10
2018-12-11T12:04:46.093Z,4.20
2018-12-11T12:07:12.833Z,4.20
2018-12-11T12:09:39.537Z,4.20
2018-12-11T12:12:06.238Z,4.20
2018-12-11T12:14:32.949Z,4.20
2018-12-11T12:16:59.655Z,4.30
2018-12-11T12:19:26.364Z,4.30
2018-12-11T12:21:53.070Z,4.30
2018-12-11T12:24:19.818Z,4.30
2018-12-11T12:26:47.542Z,4.30
2018-12-11T12:29:14.248Z,4.30
2018-12-11T12:31:41.146Z,4.30
2018-12-11T12:34:07.855Z,4.40
2018-12-11T12:36:34.554Z,4.40
2018-12-11T12:39:01.262Z,4.40
2018-12-11T12:41:27.954Z,4.40
2018-12-11T12:43:54.683Z,4.40
2018-12-11T12:46:22.426Z,4.40
2018-12-11T12:48:49.130Z,4.40
2018-12-11T12:51:15.827Z,4.30
2018-12-11T12:53:42.534Z,4.40
2018-12-11T12:56:10.046Z,4.30
2018-12-11T12:58:36.758Z,4.30
2018-12-11T13:01:03.465Z,4.30
2018-12-11T13:03:30.507Z,4.30
2018-12-11T13:05:57.389Z,4.20
2018-12-11T13:08:24.111Z,4.20
2018-12-11T13:10:50.821Z,4.20
2018-12-11T13:13:17.526Z,4.10
2018-12-11T13:15:44.226Z,4.20
2018-12-11T13:18:10.935Z,4.20
2018-12-11T13:20:37.737Z,4.20
2018-12-11T13:23:04.435Z,4.20
2018-12-11T13:25:31.158Z,4.20
2018-12-11T13:27:57.862Z,4.20
2018-12-11T13:30:24.575Z,4.20
2018-12-11T13:32:51.274Z,4.20
2018-12-11T13:35:17.987Z,4.20
2018-12-11T13:37:44.686Z,4.20
2018-12-11T13:40:11.802Z,4.10
2018-12-11T13:42:38.529Z,4.10
2018-12-11T13:45:05.327Z,4.00
2018-12-11T13:47:32.030Z,3.90
2018-12-11T13:49:58.746Z,3.90
2018-12-11T13:52:25.451Z,3.90
2018-12-11T13:54:52.154Z,3.90
2018-12-11T13:57:18.852Z,4.00
2018-12-11T13:59:45.563Z,4.00
2018-12-11T14:02:12.275Z,4.00
2018-12-11T14:04:39.070Z,4.00
2018-12-11T14:07:05.802Z,3.90
2018-12-11T14:09:45.428Z,3.90
2018-12-11T14:12:18.162Z,3.90
2018-12-11T14:14:44.902Z,3.80
2018-12-11T14:17:11.622Z,3.90
2018-12-11T14:19:38.430Z,3.80
2018-12-11T14:22:05.207Z,3.80
2018-12-11T14:24:31.966Z,3.80
2018-12-11T14:26:59.218Z,3.70
2018-12-11T14:29:26.170Z,3.70
2018-12-11T14:31:52.897Z,3.60
2018-12-11T14:34:19.648Z,3.60
2018-12-11T14:36:46.414Z,3.50
2018-12-11T14:39:13.147Z,3.50
2018-12-11T14:41:39.909Z,3.40
2018-12-11T14:44:06.645Z,3.40
2018-12-11T14:46:33.471Z,3.30
2018-12-11T14:49:00.261Z,3.40
2018-12-11T14:51:27.157Z,3.40
2018-12-11T14:53:53.890Z,3.40
2018-12-11T14:56:20.656Z,3.40
2018-12-11T14:58:47.400Z,3.40
2018-12-11T15:01:14.188Z,3.40
2018-12-11T15:03:40.923Z,3.40
2018-12-11T15:06:07.694Z,3.40
2018-12-11T15:08:35.386Z,3.40
2018-12-11T15:11:02.167Z,3.40
2018-12-11T15:13:28.867Z,3.40
2018-12-11T15:15:55.578Z,3.40
2018-12-11T15:18:22.270Z,3.40
2018-12-11T15:20:48.996Z,3.40
2018-12-11T15:23:15.690Z,3.30
2018-12-11T15:25:42.415Z,3.40
2018-12-11T15:28:09.127Z,3.40
2018-12-11T15:30:35.850Z,3.40
2018-12-11T15:33:02.554Z,3.40
2018-12-11T15:35:29.282Z,3.40
2018-12-11T15:37:55.973Z,3.30
2018-12-11T15:40:22.686Z,3.30
2018-12-11T15:42:49.495Z,3.20
2018-12-11T15:45:16.238Z,3.10
2018-12-11T15:47:43.048Z,3.10
2018-12-11T15:50:09.778Z,3.00
2018-12-11T15:52:37.313Z,3.00
2018-12-11T15:55:05.382Z,3.00
2018-12-11T15:57:32.968Z,3.00
2018-12-11T16:00:00.430Z,3.00
2018-12-11T16:02:29.325Z,3.00
2018-12-11T16:04:57.606Z,3.00
2018-12-11T16:07:25.378Z,2.90
2018-12-11T16:09:53.146Z,2.90
2018-12-11T16:12:20.915Z,2.90
2018-12-11T16:14:48.685Z,2.90
2018-12-11T16:17:16.352Z,2.90
2018-12-11T16:19:43.076Z,2.90
2018-12-11T16:22:09.794Z,2.90
2018-12-11T16:24:36.494Z,2.90
2018-12-11T16:27:03.203Z,2.90
2018-12-11T16:29:29.915Z,2.90
2018-12-11T16:31:56.611Z,3.00
2018-12-11T16:34:23.318Z,3.00
2018-12-11T16:36:50.031Z,3.00
2018-12-11T16:39:16.733Z,3.00
2018-12-11T16:41:43.435Z,3.00
2018-12-11T16:44:10.152Z,3.00
2018-12-11T16:46:36.978Z,3.00
2018-12-11T16:49:03.675Z,3.10
2018-12-11T16:51:30.388Z,3.10
2018-12-11T16:53:57.082Z,3.10
2018-12-11T16:56:23.790Z,3.20
2018-12-11T16:58:50.539Z,3.20
2018-12-11T17:01:17.244Z,3.10
2018-12-11T17:03:43.943Z,3.20
2018-12-11T17:06:10.695Z,3.20
2018-12-11T17:08:37.404Z,3.20
2018-12-11T17:11:04.118Z,3.10
2018-12-11T17:13:30.866Z,3.10
2018-12-11T17:15:57.582Z,3.10
2018-12-11T17:18:24.286Z,3.10
2018-12-11T17:20:51.358Z,3.10
2018-12-11T17:23:18.055Z,3.10
2018-12-11T17:25:44.766Z,3.10
2018-12-11T17:28:11.466Z,3.10
2018-12-11T17:30:38.175Z,3.00
2018-12-11T17:33:04.887Z,2.90
2018-12-11T17:35:31.595Z,2.80
2018-12-11T17:37:58.290Z,2.70
2018-12-11T17:40:24.999Z,2.60
2018-12-11T17:42:51.963Z,2.60
2018-12-11T17:45:18.681Z,2.50
2018-12-11T17:47:45.383Z,2.60
2018-12-11T17:50:12.414Z,2.50
2018-12-11T17:52:39.467Z,2.50
2018-12-11T17:55:06.437Z,2.50
2018-12-11T17:57:33.147Z,2.50
2018-12-11T17:59:59.867Z,2.50
2018-12-11T18:02:31.522Z,2.50
2018-12-11T18:04:58.239Z,2.50
2018-12-11T18:07:24.938Z,2.50
2018-12-11T18:09:51.699Z,2.50
2018-12-11T18:12:18.410Z,2.50
2018-12-11T18:14:45.106Z,2.50
2018-12-11T18:17:11.806Z,2.50
2018-12-11T18:19:38.502Z,2.50
2018-12-11T18:22:05.210Z,2.50
2018-12-11T18:24:31.916Z,2.50
2018-12-11T18:26:58.626Z,2.50
2018-12-11T18:29:25.323Z,2.50
2018-12-11T18:31:52.358Z,2.50
2018-12-11T18:34:19.386Z,2.50
2018-12-11T18:36:46.211Z,2.50
2018-12-11T18:39:13.029Z,2.50
2018-12-11T18:41:39.746Z,2.50
2018-12-11T18:44:06.445Z,2.50
2018-12-11T18:46:33.155Z,2.50
2018-12-11T18:48:59.863Z,2.40
2018-12-11T18:51:26.567Z,2.40
2018-12-11T18:53:53.264Z,2.40
2018-12-11T18:56:19.975Z,2.40
2018-12-11T18:58:46.670Z,2.40
2018-12-11T19:01:13.374Z,2.40
2018-12-11T19:03:40.082Z,2.40
2018-12-11T19:06:06.861Z,2.40
2018-12-11T19:08:33.562Z,2.50
2018-12-11T19:11:00.272Z,2.50
2018-12-11T19:13:26.977Z,2.50
2018-12-11T19:15:53.797Z,2.50
2018-12-11T19:18:20.623Z,2.50
2018-12-11T19:20:47.533Z,2.50
2018-12-11T19:23:20.224Z,2.50
2018-12-11T19:25:46.987Z,2.50
2018-12-11T19:28:13.750Z,2.50
2018-12-11T19:30:40.451Z,2.50
2018-12-11T19:33:07.155Z,2.50
2018-12-11T19:35:33.887Z,2.50
2018-12-11T19:38:00.671Z,2.50
2018-12-11T19:40:27.375Z,2.50
2018-12-11T19:42:54.078Z,2.50
2018-12-11T19:45:20.904Z,2.50
2018-12-11T19:47:47.611Z,2.50
2018-12-11T19:50:14.307Z,2.50
2018-12-11T19:52:41.032Z,2.50
2018-12-11T19:55:07.747Z,2.50
2018-12-11T19:57:34.473Z,2.50
2018-12-11T20:00:01.170Z,2.50
2018-12-11T20:02:27.900Z,2.40
2018-12-11T20:04:54.630Z,2.40
2018-12-11T20:07:21.334Z,2.40
2018-12-11T20:09:53.815Z,2.30
2018-12-11T20:12:20.558Z,2.30
2018-12-11T20:14:47.423Z,2.20
2018-12-11T20:17:14.121Z,2.20
2018-12-11T20:19:40.854Z,2.10
2018-12-11T20:22:07.551Z,2.10
2018-12-11T20:24:34.274Z,2.10
2018-12-11T20:27:00.974Z,2.10
2018-12-11T20:29:27.697Z,2.10
2018-12-11T20:31:54.398Z,2.00
2018-12-11T20:34:21.129Z,2.00
2018-12-11T20:36:48.060Z,2.00
2018-12-11T20:39:14.815Z,2.00
2018-12-11T20:41:41.515Z,2.00
2018-12-11T20:44:08.251Z,2.00
2018-12-11T20:46:34.960Z,2.00
2018-12-11T20:49:01.694Z,2.00
2018-12-11T20:51:28.390Z,2.00
2018-12-11T20:53:55.386Z,2.10
2018-12-11T20:56:22.095Z,2.10
2018-12-11T20:58:48.806Z,2.10
2018-12-11T21:01:15.907Z,2.10
2018-12-11T21:03:42.610Z,2.10
2018-12-11T21:06:09.311Z,2.10
2018-12-11T21:08:36.014Z,2.10
2018-12-11T21:11:02.714Z,2.10
2018-12-11T21:13:29.437Z,2.10
2018-12-11T21:15:56.132Z,2.10
2018-12-11T21:18:22.834Z,2.10
2018-12-11T21:20:49.535Z,2.10
2018-12-11T21:23:16.238Z,2.10
2018-12-11T21:25:42.931Z,2.20
2018-12-11T21:28:09.633Z,2.10
2018-12-11T21:30:36.328Z,2.20
2018-12-11T21:33:03.035Z,2.10
2018-12-11T21:35:29.735Z,2.10
2018-12-11T21:37:56.431Z,2.10
2018-12-11T21:40:23.138Z,2.10
2018-12-11T21:42:49.826Z,2.10
2018-12-11T21:45:16.530Z,2.10
2018-12-11T21:47:43.223Z,2.10
2018-12-11T21:50:09.930Z,2.20
2018-12-11T21:52:36.623Z,2.20
2018-12-11T21:55:03.866Z,2.20
2018-12-11T21:57:30.566Z,2.20
2018-12-11T21:59:57.269Z,2.20
2018-12-11T22:02:23.961Z,2.10
2018-12-11T22:04:50.671Z,2.10
2018-12-11T22:07:17.370Z,2.10
2018-12-11T22:09:44.070Z,2.10
2018-12-11T22:12:11.286Z,2.10
2018-12-11T22:14:37.996Z,2.10
2018-12-11T22:17:04.805Z,2.10
2018-12-11T22:19:31.510Z,2.20
2018-12-11T22:21:58.233Z,2.10
2018-12-11T22:24:24.930Z,2.20
2018-12-11T22:26:51.623Z,2.20
2018-12-11T22:29:18.326Z,2.20
2018-12-11T22:31:45.046Z,2.20
2018-12-11T22:34:11.755Z,2.10
2018-12-11T22:36:38.450Z,2.10
2018-12-11T22:39:06.330Z,2.10
2018-12-11T22:41:33.027Z,2.10
2018-12-11T22:43:59.726Z,2.20
2018-12-11T22:46:26.431Z,2.10
2018-12-11T22:48:53.363Z,2.10
2018-12-11T22:51:20.906Z,2.20
2018-12-11T22:53:47.622Z,2.20
2018-12-11T22:56:14.350Z,2.20
2018-12-11T22:58:41.052Z,2.20
2018-12-11T23:01:07.754Z,2.20
2018-12-11T23:03:34.486Z,2.20
2018-12-11T23:06:01.196Z,2.20
2018-12-11T23:08:27.886Z,2.20
2018-12-11T23:10:54.706Z,2.20
2018-12-11T23:13:21.402Z,2.10
2018-12-11T23:15:48.097Z,2.10
2018-12-11T23:18:14.794Z,2.10
2018-12-11T23:20:41.500Z,2.10
2018-12-11T23:23:08.198Z,2.10
2018-12-11T23:25:34.902Z,2.00
2018-12-11T23:28:01.604Z,2.00
2018-12-11T23:30:28.305Z,2.00
2018-12-11T23:32:55.006Z,2.00
2018-12-11T23:35:22.204Z,2.00
2018-12-11T23:37:48.899Z,1.90
2018-12-11T23:40:15.599Z,1.90
2018-12-11T23:42:42.294Z,1.80
2018-12-11T23:45:08.999Z,1.80
2018-12-11T23:47:35.698Z,1.80
2018-12-11T23:50:02.414Z,1.80
2018-12-11T23:52:29.111Z,1.70
2018-12-11T23:54:55.815Z,1.60
2018-12-11T23:57:22.519Z,1.60
2018-12-11T23:59:49.226Z,1.60
